createdAt,value
2023-01-05T00:03:45.342Z,13.42
2023-01-05T00:08:49.996Z,13.42
2023-01-05T00:14:11.046Z,13.42
2023-01-05T00:19:31.742Z,13.40
2023-01-05T00:24:36.627Z,13.42
2023-01-05T00:29:39.835Z,13.41
2023-01-05T00:34:43.207Z,13.41
2023-01-05T00:39:47.770Z,13.33
2023-01-05T00:44:51.063Z,13.20
2023-01-05T00:49:54.254Z,13.16
2023-01-05T00:54:58.787Z,13.07
2023-01-05T01:00:02.735Z,12.99
2023-01-05T01:05:08.897Z,12.92
2023-01-05T01:10:13.748Z,12.93
2023-01-05T01:15:17.602Z,12.93
2023-01-05T01:20:20.693Z,12.88
2023-01-05T01:25:25.143Z,12.85
2023-01-05T01:30:28.265Z,12.87
2023-01-05T01:35:31.397Z,12.83
2023-01-05T01:40:40.024Z,12.80
2023-01-05T01:45:43.546Z,12.75
2023-01-05T01:50:50.633Z,12.78
2023-01-05T01:55:55.931Z,12.72
2023-01-05T02:01:02.513Z,12.69
2023-01-05T02:06:09.555Z,12.65
2023-01-05T02:11:38.777Z,12.62
2023-01-05T02:16:53.683Z,12.62
2023-01-05T02:22:07.840Z,12.59
2023-01-05T02:27:34.760Z,12.55
2023-01-05T02:32:46.513Z,12.53
2023-01-05T02:37:58.189Z,12.57
2023-01-05T02:43:03.074Z,12.59
2023-01-05T02:48:08.490Z,12.62
2023-01-05T02:53:18.747Z,12.64
2023-01-05T02:58:28.211Z,12.62
2023-01-05T03:03:39.293Z,12.63
2023-01-05T03:08:50.783Z,12.52
2023-01-05T03:13:58.729Z,12.40
2023-01-05T03:19:24.002Z,12.36
2023-01-05T03:24:44.826Z,12.30
2023-01-05T03:30:05.405Z,12.20
2023-01-05T03:35:31.844Z,12.18
2023-01-05T03:40:38.433Z,12.10
2023-01-05T03:45:44.642Z,12.03
2023-01-05T03:50:49.761Z,12.00
2023-01-05T03:55:53.005Z,12.01
2023-01-05T04:00:56.347Z,12.00
2023-01-05T04:06:01.600Z,11.97
2023-01-05T04:11:15.927Z,11.95
2023-01-05T04:16:19.355Z,11.93
2023-01-05T04:21:24.042Z,11.94
2023-01-05T04:26:27.282Z,11.82
2023-01-05T04:31:30.540Z,11.72
2023-01-05T04:36:35.246Z,11.56
2023-01-05T04:41:38.763Z,11.50
2023-01-05T04:46:42.207Z,11.54
2023-01-05T04:51:46.873Z,11.58
2023-01-05T04:56:49.991Z,11.55
2023-01-05T05:01:53.433Z,11.53
2023-01-05T05:06:58.188Z,11.53
2023-01-05T05:12:01.371Z,11.59
2023-01-05T05:17:04.762Z,11.61
2023-01-05T05:22:09.615Z,11.62
2023-01-05T05:27:12.797Z,11.63
2023-01-05T05:32:15.927Z,11.66
2023-01-05T05:37:20.574Z,11.68
2023-01-05T05:42:23.780Z,11.68
2023-01-05T05:47:27.039Z,11.63
2023-01-05T05:52:31.473Z,11.65
2023-01-05T05:57:34.853Z,11.67
2023-01-05T06:02:38.264Z,11.77
2023-01-05T06:07:43.168Z,11.80
2023-01-05T06:12:46.423Z,11.87
2023-01-05T06:17:49.848Z,11.78
2023-01-05T06:22:54.299Z,11.83
2023-01-05T06:27:57.594Z,11.77
2023-01-05T06:33:00.842Z,11.76
2023-01-05T06:38:05.408Z,11.74
2023-01-05T06:43:08.747Z,11.77
2023-01-05T06:48:12.029Z,11.78
2023-01-05T06:53:16.723Z,11.77
2023-01-05T06:58:19.813Z,11.81
2023-01-05T07:03:24.468Z,11.78
2023-01-05T07:08:29.096Z,11.75
2023-01-05T07:13:32.371Z,11.73
2023-01-05T07:18:35.861Z,11.76
2023-01-05T07:23:40.405Z,11.74
2023-01-05T07:28:43.693Z,11.72
2023-01-05T07:33:46.949Z,11.71
2023-01-05T07:38:57.672Z,11.70
2023-01-05T07:44:02.769Z,11.67
2023-01-05T07:49:06.093Z,11.68
2023-01-05T07:54:10.713Z,11.69
2023-01-05T07:59:13.920Z,11.72
2023-01-05T08:04:17.401Z,11.70
2023-01-05T08:09:39.587Z,11.67
2023-01-05T08:14:42.830Z,11.60
2023-01-05T08:19:46.010Z,11.55
2023-01-05T08:24:52.502Z,11.59
2023-01-05T08:29:55.872Z,11.62
2023-01-05T08:34:59.094Z,11.61
2023-01-05T08:40:03.881Z,11.61
2023-01-05T08:45:08.305Z,11.64
2023-01-05T08:50:13.049Z,11.66
2023-01-05T08:55:17.783Z,11.71
2023-01-05T09:00:22.246Z,11.85
2023-01-05T09:05:25.342Z,11.92
2023-01-05T09:10:29.980Z,11.93
2023-01-05T09:15:33.120Z,11.91
2023-01-05T09:20:39.893Z,11.93
2023-01-05T09:25:44.811Z,11.92
2023-01-05T09:30:50.803Z,11.93
2023-01-05T09:35:56.140Z,11.97
2023-01-05T09:41:06.751Z,11.97
2023-01-05T09:46:15.049Z,12.00
2023-01-05T09:51:18.345Z,12.01
2023-01-05T09:57:07.307Z,12.07
2023-01-05T10:01:55.939Z,12.07
2023-01-05T10:07:03.603Z,11.91
2023-01-05T10:12:37.061Z,11.81
2023-01-05T10:17:43.741Z,12.02
2023-01-05T10:22:58.735Z,12.20
2023-01-05T10:28:12.194Z,12.21
2023-01-05T10:33:32.102Z,12.17
2023-01-05T10:38:55.576Z,12.17
2023-01-05T10:44:34.942Z,12.22
2023-01-05T10:49:39.575Z,12.36
2023-01-05T10:54:47.395Z,12.59
2023-01-05T10:59:59.531Z,12.79
2023-01-05T11:05:07.198Z,12.89
2023-01-05T11:10:22.362Z,13.14
2023-01-05T11:15:28.879Z,13.22
2023-01-05T11:20:32.218Z,13.24
2023-01-05T11:25:39.844Z,13.18
2023-01-05T11:30:59.661Z,13.15
2023-01-05T11:36:06.081Z,13.17
2023-01-05T11:41:14.410Z,13.18
2023-01-05T11:46:19.351Z,13.10
2023-01-05T11:51:35.462Z,13.03
2023-01-05T11:56:38.609Z,12.99
2023-01-05T12:02:02.303Z,12.90
2023-01-05T12:07:18.438Z,12.89
2023-01-05T12:12:46.735Z,12.83
2023-01-05T12:18:03.367Z,12.81
2023-01-05T12:23:28.194Z,12.85
2023-01-05T12:30:24.622Z,12.87
2023-01-05T12:34:54.847Z,12.83
2023-01-05T12:40:17.212Z,12.84
2023-01-05T12:45:54.232Z,12.83
2023-01-05T12:51:05.881Z,12.83
2023-01-05T12:56:20.491Z,12.81
2023-01-05T13:01:28.859Z,12.72
2023-01-05T13:06:38.701Z,12.70
2023-01-05T13:11:50.408Z,12.67
2023-01-05T13:17:00.371Z,12.62
2023-01-05T13:22:07.992Z,12.62
2023-01-05T13:27:13.548Z,12.57
2023-01-05T13:32:45.013Z,12.55
2023-01-05T13:38:22.772Z,12.53
2023-01-05T13:44:04.221Z,12.53
2023-01-05T13:49:21.745Z,12.55
2023-01-05T13:55:00.043Z,12.55
2023-01-05T14:00:11.226Z,12.52
2023-01-05T14:05:23.775Z,12.50
2023-01-05T14:10:30.966Z,12.53
2023-01-05T14:15:44.322Z,12.46
2023-01-05T14:20:49.866Z,12.46
2023-01-05T14:25:57.685Z,12.42
2023-01-05T14:31:37.906Z,12.38
2023-01-05T14:36:43.956Z,12.32
2023-01-05T14:42:03.942Z,12.34
2023-01-05T14:47:07.451Z,12.27
2023-01-05T14:52:17.744Z,12.26
2023-01-05T14:57:38.258Z,12.24
2023-01-05T15:02:55.648Z,12.17
2023-01-05T15:08:12.531Z,12.18
2023-01-05T15:13:36.459Z,12.08
2023-01-05T15:18:58.811Z,12.05
2023-01-05T15:24:49.718Z,11.94
2023-01-05T15:30:10.304Z,11.77
2023-01-05T15:35:18.934Z,11.71
2023-01-05T15:40:31.766Z,11.67
2023-01-05T15:45:43.195Z,11.60
2023-01-05T15:50:48.401Z,11.53
2023-01-05T15:55:53.508Z,11.48
2023-01-05T16:01:11.741Z,11.41
2023-01-05T16:06:18.852Z,11.35
2023-01-05T16:11:27.629Z,11.34
2023-01-05T16:16:51.739Z,11.33
2023-01-05T16:21:59.643Z,11.32
2023-01-05T16:27:07.429Z,11.32
2023-01-05T16:32:31.633Z,11.32
2023-01-05T16:37:34.824Z,11.24
2023-01-05T16:42:48.329Z,11.22
2023-01-05T16:47:53.372Z,11.19
2023-01-05T16:52:59.668Z,11.18
2023-01-05T16:58:07.719Z,11.16
2023-01-05T17:03:33.214Z,11.20
2023-01-05T17:08:37.086Z,11.15
2023-01-05T17:13:43.612Z,11.09
2023-01-05T17:18:50.013Z,11.02
2023-01-05T17:23:55.462Z,10.98
2023-01-05T17:34:05.679Z,10.94
2023-01-05T17:39:09.177Z,10.94
2023-01-05T17:44:12.907Z,10.92
2023-01-05T17:49:19.979Z,10.91
2023-01-05T17:54:22.996Z,10.89
2023-01-05T17:59:27.858Z,10.88
2023-01-05T18:04:32.856Z,10.90
2023-01-05T18:09:38.086Z,10.89
2023-01-05T18:14:43.754Z,10.85
2023-01-05T18:19:48.798Z,10.86
2023-01-05T18:24:52.130Z,10.83
2023-01-05T18:29:57.177Z,10.77
2023-01-05T18:35:04.407Z,10.72
2023-01-05T18:40:15.720Z,10.68
2023-01-05T18:45:26.013Z,10.66
2023-01-05T18:50:42.413Z,10.64
2023-01-05T18:55:45.654Z,10.62
2023-01-05T19:00:48.918Z,10.60
2023-01-05T19:05:53.641Z,10.58
2023-01-05T19:10:57.085Z,10.52
2023-01-05T19:16:02.878Z,10.43
2023-01-05T19:21:07.582Z,10.42
2023-01-05T19:26:11.121Z,10.40
2023-01-05T19:31:15.658Z,10.40
2023-01-05T19:36:22.148Z,10.37
2023-01-05T19:41:25.770Z,10.33
2023-01-05T19:46:29.972Z,10.31
2023-01-05T19:51:35.052Z,10.30
2023-01-05T19:56:39.118Z,10.29
2023-01-05T20:01:42.340Z,10.26
2023-01-05T20:06:47.193Z,10.28
2023-01-05T20:11:54.756Z,10.29
2023-01-05T20:17:06.402Z,10.27
2023-01-05T20:22:14.891Z,10.26
2023-01-05T20:27:18.972Z,10.25
2023-01-05T20:32:24.033Z,10.24
2023-01-05T20:37:29.841Z,10.23
2023-01-05T20:42:33.198Z,10.22
2023-01-05T20:47:46.820Z,10.21
2023-01-05T20:52:52.188Z,10.21
2023-01-05T20:57:55.323Z,10.22
2023-01-05T21:02:58.597Z,10.23
2023-01-05T21:08:03.296Z,10.23
2023-01-05T21:13:30.455Z,10.20
2023-01-05T21:18:29.542Z,10.18
2023-01-05T21:23:34.013Z,10.18
2023-01-05T21:28:39.661Z,10.17
2023-01-05T21:33:43.461Z,10.17
2023-01-05T21:39:01.444Z,10.22
2023-01-05T21:44:07.601Z,10.22
2023-01-05T21:49:14.609Z,10.21
2023-01-05T21:54:39.437Z,10.23
2023-01-05T21:59:47.559Z,10.24
2023-01-05T22:04:54.618Z,10.21
2023-01-05T22:10:03.508Z,10.21
2023-01-05T22:15:13.377Z,10.22
2023-01-05T22:20:35.963Z,10.26
2023-01-05T22:25:44.892Z,10.23
2023-01-05T22:30:52.232Z,10.20
2023-01-05T22:35:57.858Z,10.20
2023-01-05T22:41:04.710Z,10.13
2023-01-05T22:46:16.455Z,10.12
2023-01-05T22:51:23.895Z,10.03
2023-01-05T22:56:34.174Z,9.91
2023-01-05T23:01:39.628Z,9.86
2023-01-05T23:06:52.958Z,9.82
2023-01-05T23:12:19.197Z,9.81
2023-01-05T23:17:31.322Z,9.72
2023-01-05T23:28:20.834Z,9.49
2023-01-05T23:33:30.416Z,9.44
2023-01-05T23:38:35.176Z,9.42
2023-01-05T23:43:47.622Z,9.46
2023-01-05T23:48:53.774Z,9.45
2023-01-05T23:53:59.225Z,9.43
2023-01-05T23:59:13.805Z,9.47
